Time;durP1;ratioP1;P1;durP2;ratioP2;P2;SDS_P1;SDS_P2;PMS_P1;PMS_P2;Temp;Humidity;BMP_temperature;BMP_pressure;BME280_temperature;BME280_humidity;BME280_pressure;Samples;Min_cycle;Max_cycle;Signal;HPM_P1;HPM_P2
2022/10/05 00:00:19;;;;;;;1.87;1.77;;;;;;;-143.84;62.83;45129.03;5131700;27;20433;-68
2022/10/05 00:02:48;;;;;;;2.80;1.20;;;;;;;-143.84;62.51;45142.38;5131545;27;20442;-68
2022/10/05 00:05:23;;;;;;;2.10;1.50;;;;;;;-143.84;61.83;45174.75;5131493;27;20477;-69
2022/10/05 00:07:52;;;;;;;1.83;1.30;;;;;;;-143.84;61.28;45125.22;5131997;27;20464;-68
2022/10/05 00:10:19;;;;;;;1.97;1.53;;;;;;;-143.84;61.09;45121.44;5131776;27;20432;-69
2022/10/05 00:12:48;;;;;;;1.70;1.60;;;;;;;-143.84;60.87;45123.34;5131660;27;20438;-68
2022/10/05 00:15:19;;;;;;;1.30;1.20;;;;;;;-143.84;60.79;45132.84;5131639;27;20817;-68
2022/10/05 00:17:46;;;;;;;1.57;1.47;;;;;;;-143.84;60.64;45113.81;5131480;27;20456;-69
2022/10/05 00:20:22;;;;;;;2.07;1.50;;;;;;;-143.84;60.66;45129.03;5131393;27;20502;-68
2022/10/05 00:22:55;;;;;;;2.23;1.57;;;;;;;-143.84;60.02;45113.81;5131282;27;20455;-69
2022/10/05 00:25:22;;;;;;;3.20;1.60;;;;;;;-143.84;60.13;45111.91;5131327;27;20969;-68
2022/10/05 00:27:55;;;;;;;1.47;1.37;;;;;;;-143.84;59.95;45125.22;5131368;27;20445;-69
2022/10/05 00:30:26;;;;;;;2.50;1.83;;;;;;;-143.84;60.04;45129.03;5131227;27;20437;-69
2022/10/05 00:32:53;;;;;;;1.33;1.10;;;;;;;-143.84;59.53;45111.91;5131263;27;20943;-69
2022/10/05 00:35:20;;;;;;;4.70;1.47;;;;;;;-143.84;59.43;45125.22;5131115;27;20444;-68
2022/10/05 00:37:53;;;;;;;7.67;1.43;;;;;;;-143.84;58.43;45104.28;5131104;27;20987;-69
2022/10/05 00:40:35;;;;;;;1.20;1.00;;;;;;;-143.84;58.14;45129.03;5131178;27;20440;-68
2022/10/05 00:43:21;;;;;;;2.23;1.43;;;;;;;-143.84;58.19;45121.44;5130908;27;20438;-68
2022/10/05 00:45:55;;;;;;;3.13;1.47;;;;;;;-143.84;58.07;45138.56;5131076;27;20810;-69
2022/10/05 00:48:29;;;;;;;1.53;1.43;;;;;;;-143.84;57.57;45130.94;5130698;27;20442;-69
2022/10/05 00:51:10;;;;;;;1.57;1.40;;;;;;;-143.84;57.26;45111.91;5130039;27;20430;-69
2022/10/05 00:53:47;;;;;;;1.97;1.40;;;;;;;-143.84;57.31;45090.97;5130917;27;20437;-68
2022/10/05 00:56:28;;;;;;;2.40;1.50;;;;;;;-143.84;57.39;45121.44;5130439;27;20438;-68
2022/10/05 00:59:02;;;;;;;2.73;1.43;;;;;;;-143.84;57.54;45132.84;5130737;27;20483;-68
2022/10/05 01:01:36;;;;;;;2.63;1.30;;;;;;;-143.84;57.81;45110.00;5130917;27;20480;-68
2022/10/05 01:04:13;;;;;;;1.97;1.60;;;;;;;-143.84;57.89;45111.91;5130658;27;20446;-68
2022/10/05 01:06:50;;;;;;;3.80;1.20;;;;;;;-143.84;58.14;45113.81;5130585;27;20918;-68
2022/10/05 01:09:25;;;;;;;8.03;1.43;;;;;;;-143.84;58.36;45110.00;5130751;27;20452;-68
2022/10/05 01:12:00;;;;;;;2.40;1.70;;;;;;;-143.84;58.43;45132.84;5130373;27;20448;-68
2022/10/05 01:14:34;;;;;;;3.83;1.80;;;;;;;-143.84;58.49;45125.22;5130569;27;20437;-68
2022/10/05 01:17:09;;;;;;;6.10;1.90;;;;;;;-143.84;59.00;45140.47;5130654;27;20850;-68
2022/10/05 01:20:01;;;;;;;2.03;1.90;;;;;;;-143.84;58.69;45129.03;5129747;27;21373;-68
2022/10/05 01:22:41;;;;;;;1.67;1.57;;;;;;;-143.84;59.14;45142.38;5129785;27;20440;-68
2022/10/05 01:25:23;;;;;;;1.53;1.43;;;;;;;-143.84;59.38;45098.56;5129069;27;20433;-68
2022/10/05 01:28:03;;;;;;;1.87;1.50;;;;;;;-143.84;59.53;45111.91;5130663;27;20539;-68
2022/10/05 01:30:38;;;;;;;2.40;1.77;;;;;;;-143.84;59.94;45096.66;5129887;27;20448;-68
2022/10/05 01:33:14;;;;;;;1.87;1.70;;;;;;;-143.84;59.93;45129.03;5130332;27;20444;-68
2022/10/05 01:35:51;;;;;;;1.97;1.70;;;;;;;-143.84;60.02;45111.91;5130067;27;20443;-68
2022/10/05 01:38:32;;;;;;;1.60;1.50;;;;;;;-143.84;60.38;45142.38;5130268;27;20482;-68
2022/10/05 01:41:11;;;;;;;2.13;1.73;;;;;;;-143.84;60.37;45110.00;5130255;27;20456;-68
2022/10/05 01:43:46;;;;;;;2.47;1.80;;;;;;;-143.84;60.27;45136.66;5129852;28;20945;-68
2022/10/05 01:46:23;;;;;;;16.70;1.67;;;;;;;-143.84;60.21;45136.66;5130368;28;20495;-68
2022/10/05 01:49:06;;;;;;;4.43;1.67;;;;;;;-143.84;60.64;45148.09;5129821;28;20435;-68
2022/10/05 01:51:43;;;;;;;3.10;2.33;;;;;;;-143.84;61.04;45121.44;5129428;28;20440;-68
2022/10/05 01:54:22;;;;;;;2.27;1.60;;;;;;;-143.84;61.06;45106.19;5129338;28;20448;-68
2022/10/05 01:56:58;;;;;;;2.60;1.70;;;;;;;-143.84;61.48;45111.91;5129638;28;20432;-68
2022/10/05 01:59:39;;;;;;;2.90;1.30;;;;;;;-143.84;61.59;45125.22;5128675;28;21206;-68
2022/10/05 02:02:11;;;;;;;4.53;2.10;;;;;;;-143.84;61.66;45100.47;5132238;27;20442;-68
2022/10/05 02:04:43;;;;;;;2.30;2.10;;;;;;;-143.84;62.09;45142.38;5134059;27;20955;-68
2022/10/05 02:07:16;;;;;;;2.20;2.00;;;;;;;-143.84;62.38;45119.53;5133710;27;20492;-68
2022/10/05 02:09:50;;;;;;;1.80;1.70;;;;;;;-143.84;62.57;45100.47;5134111;27;20444;-68
2022/10/05 02:12:22;;;;;;;2.50;2.40;;;;;;;-143.84;62.94;45115.72;5133966;27;20519;-68
2022/10/05 02:14:55;;;;;;;2.80;1.87;;;;;;;-143.84;62.74;45138.56;5133915;27;20467;-68
2022/10/05 02:17:27;;;;;;;2.70;2.17;;;;;;;-143.84;63.06;45142.38;5134017;27;20449;-68
2022/10/05 02:20:00;;;;;;;2.20;2.10;;;;;;;-143.84;63.23;45129.03;5133502;27;20518;-68
2022/10/05 02:22:32;;;;;;;2.90;2.10;;;;;;;-143.84;63.85;45125.22;5133646;27;20432;-68
2022/10/05 02:25:03;;;;;;;2.00;1.80;;;;;;;-143.84;63.84;45136.66;5133596;27;20447;-68
2022/10/05 02:27:34;;;;;;;5.37;2.17;;;;;;;-143.84;64.16;45134.75;5133839;27;20438;-68
2022/10/05 02:30:06;;;;;;;3.53;2.03;;;;;;;-143.84;64.66;45119.53;5133593;27;20442;-68
2022/10/05 02:32:39;;;;;;;2.33;2.13;;;;;;;-143.84;64.84;45127.13;5133605;27;20455;-68
2022/10/05 02:35:15;;;;;;;2.00;1.80;;;;;;;-143.84;65.30;45151.91;5133262;27;20426;-68
2022/10/05 02:37:56;;;;;;;4.33;2.50;;;;;;;-143.84;65.44;45136.66;5133681;27;20484;-68
2022/10/05 02:40:35;;;;;;;2.40;2.20;;;;;;;-143.84;65.86;45127.13;5133190;27;20486;-68
2022/10/05 02:43:15;;;;;;;3.80;2.40;;;;;;;-143.84;66.13;45144.28;5133311;27;20939;-68
2022/10/05 02:45:52;;;;;;;2.60;2.40;;;;;;;-143.84;66.42;45140.47;5133376;27;20441;-68
2022/10/05 02:48:28;;;;;;;2.67;2.50;;;;;;;-143.84;66.41;45125.22;5133362;27;20442;-68
2022/10/05 02:51:05;;;;;;;2.33;2.20;;;;;;;-143.84;66.56;45125.22;5133525;27;20781;-68
2022/10/05 02:53:40;;;;;;;3.13;2.40;;;;;;;-143.84;66.84;45144.28;5133262;27;20498;-68
2022/10/05 02:56:18;;;;;;;3.87;2.83;;;;;;;-143.84;67.23;45138.56;5132956;27;20426;-68
2022/10/05 02:58:57;;;;;;;4.73;2.60;;;;;;;-143.84;67.47;45123.34;5133002;27;20430;-68
2022/10/05 03:01:31;;;;;;;2.53;2.33;;;;;;;-143.84;67.56;45150.00;5132908;27;20441;-68
2022/10/05 03:04:11;;;;;;;3.17;2.50;;;;;;;-143.84;68.00;45159.50;5132932;27;20439;-68
2022/10/05 03:06:46;;;;;;;2.97;2.67;;;;;;;-143.84;67.90;45129.03;5131690;27;20601;-68
2022/10/05 03:09:16;;;;;;;3.07;2.30;;;;;;;-143.84;68.29;45104.28;5131631;27;20864;-68
2022/10/05 03:11:51;;;;;;;2.87;2.43;;;;;;;-143.84;68.53;45150.00;5132219;27;20965;-68
2022/10/05 03:14:26;;;;;;;2.73;2.63;;;;;;;-143.84;68.40;45140.47;5131613;27;20434;-69
2022/10/05 03:17:06;;;;;;;6.20;2.83;;;;;;;-143.84;68.54;45148.09;5132518;27;20500;-68
2022/10/05 03:19:57;;;;;;;2.80;2.60;;;;;;;-143.84;68.98;45134.75;5133032;27;20986;-68
2022/10/05 03:22:38;;;;;;;2.90;2.70;;;;;;;-143.84;69.33;45111.91;5132687;27;20806;-68
2022/10/05 03:25:27;;;;;;;3.40;3.03;;;;;;;-143.84;69.57;45155.69;5132649;27;20438;-68
2022/10/05 03:28:02;;;;;;;3.10;2.80;;;;;;;-143.84;69.77;45121.44;5132558;27;20495;-68
2022/10/05 03:30:35;;;;;;;3.07;2.87;;;;;;;-143.84;70.06;45150.00;5132521;27;20439;-68
2022/10/05 03:33:13;;;;;;;6.93;3.60;;;;;;;-143.84;70.55;45167.13;5123866;27;20456;-71
2022/10/05 03:35:51;;;;;;;3.63;3.33;;;;;;;-143.84;71.14;45138.56;5111733;28;20440;-70
2022/10/05 03:38:26;;;;;;;5.97;3.00;;;;;;;-143.84;70.78;45130.94;5111301;28;20600;-72
2022/10/05 03:40:59;;;;;;;3.00;2.80;;;;;;;-143.84;71.16;45119.53;5111420;28;20485;-71
2022/10/05 03:44:02;;;;;;;2.83;2.63;;;;;;;-143.84;71.85;45167.13;5111910;28;20869;-70
2022/10/05 03:46:44;;;;;;;4.67;3.37;;;;;;;-143.84;71.79;45153.81;5111621;28;20511;-71
2022/10/05 03:49:23;;;;;;;4.70;3.10;;;;;;;-143.84;71.79;45146.19;5112622;27;20440;-71
2022/10/05 03:51:59;;;;;;;4.17;3.57;;;;;;;-143.84;71.86;45144.28;5130353;27;20507;-70
2022/10/05 03:54:33;;;;;;;3.70;3.27;;;;;;;-143.84;72.19;45144.28;5131874;27;20422;-70
2022/10/05 03:57:07;;;;;;;3.97;3.10;;;;;;;-143.84;72.38;45178.56;5131866;27;20444;-70
2022/10/05 03:59:40;;;;;;;3.47;3.20;;;;;;;-143.84;72.53;45144.28;5132118;27;20844;-70
2022/10/05 04:02:16;;;;;;;3.53;3.23;;;;;;;-143.84;72.39;45153.81;5132246;27;20826;-71
2022/10/05 04:04:51;;;;;;;3.63;3.23;;;;;;;-143.84;72.50;45169.03;5131621;27;20429;-71
2022/10/05 04:07:30;;;;;;;3.40;3.10;;;;;;;-143.84;72.39;45140.47;5090958;28;20518;-71
2022/10/05 04:10:00;;;;;;;7.00;2.97;;;;;;;-143.84;72.65;45136.66;5090559;28;20754;-71
2022/10/05 04:12:32;;;;;;;3.70;3.40;;;;;;;-143.84;72.66;45129.03;5090761;28;20832;-70
2022/10/05 04:15:03;;;;;;;3.67;3.23;;;;;;;-143.84;72.50;45153.81;5091018;28;20485;-71
2022/10/05 04:17:37;;;;;;;3.60;3.30;;;;;;;-143.84;72.50;45155.69;5090649;28;20850;-71
2022/10/05 04:20:16;;;;;;;3.67;3.37;;;;;;;-143.84;72.37;45132.84;5090606;28;20981;-70
2022/10/05 04:22:53;;;;;;;6.00;3.80;;;;;;;-143.84;72.36;45148.09;5095981;28;20431;-71
2022/10/05 04:25:25;;;;;;;3.00;2.80;;;;;;;-143.84;72.16;45146.19;5089981;28;20530;-71
2022/10/05 04:28:00;;;;;;;11.47;3.50;;;;;;;-143.84;71.99;45132.84;5089184;28;20500;-72
2022/10/05 04:30:27;;;;;;;3.30;3.00;;;;;;;-143.84;71.87;45136.66;5089371;28;20500;-74
2022/10/05 04:32:57;;;;;;;5.67;3.30;;;;;;;-143.84;71.31;45136.66;5089932;28;20443;-71
2022/10/05 04:35:41;;;;;;;3.30;3.10;;;;;;;-143.84;71.64;45129.03;5090315;28;20449;-74
2022/10/05 04:38:24;;;;;;;5.70;3.70;;;;;;;-143.84;71.25;45174.75;5089092;28;20443;-75
2022/10/05 04:41:04;;;;;;;3.17;2.97;;;;;;;-143.84;71.11;45142.38;5090533;28;20487;-74
2022/10/05 04:43:42;;;;;;;3.67;2.90;;;;;;;-143.84;71.01;45129.03;5090008;28;20512;-74
2022/10/05 04:46:23;;;;;;;8.30;3.03;;;;;;;-143.84;70.64;45142.38;5089837;28;21012;-73
2022/10/05 04:49:16;;;;;;;3.53;2.70;;;;;;;-143.84;70.54;45151.91;5088557;28;20440;-74
2022/10/05 04:51:56;;;;;;;8.70;3.37;;;;;;;-143.84;70.27;45129.03;5089236;28;20439;-74
2022/10/05 04:54:35;;;;;;;10.43;3.00;;;;;;;-143.84;70.09;45125.22;5089555;28;20971;-74
2022/10/05 04:57:07;;;;;;;7.03;3.00;;;;;;;-143.84;69.77;45127.13;5089387;28;20494;-74
2022/10/05 05:00:00;;;;;;;5.30;3.00;;;;;;;-143.84;69.46;45151.91;5089803;28;20479;-74
2022/10/05 05:02:43;;;;;;;4.30;3.20;;;;;;;-143.84;68.97;45142.38;5088214;28;21007;-74
2022/10/05 05:05:41;;;;;;;2.90;2.70;;;;;;;-143.84;68.43;45129.03;5094629;27;20474;-74
2022/10/05 05:08:24;;;;;;;4.00;3.13;;;;;;;-143.84;67.86;45148.09;5127770;27;20523;-74
2022/10/05 05:11:05;;;;;;;5.33;3.37;;;;;;;-143.84;67.81;45134.75;5129173;27;20450;-74
2022/10/05 05:14:13;;;;;;;3.10;2.90;;;;;;;-143.84;67.18;45159.50;5129462;27;20853;-73
2022/10/05 05:16:43;;;;;;;5.93;2.60;;;;;;;-143.84;66.77;45161.41;5130077;27;20500;-73
2022/10/05 05:19:18;;;;;;;8.37;2.90;;;;;;;-143.84;66.64;45106.19;5129791;27;20439;-73
2022/10/05 05:21:54;;;;;;;3.60;2.47;;;;;;;-143.84;66.25;45130.94;5129901;27;20445;-73
2022/10/05 05:24:34;;;;;;;2.83;2.63;;;;;;;-143.84;65.74;45130.94;5130129;27;20981;-74
2022/10/05 05:27:19;;;;;;;2.87;2.60;;;;;;;-143.84;65.68;45121.44;5129970;27;20440;-74
2022/10/05 05:29:58;;;;;;;17.60;4.87;;;;;;;-143.84;64.68;45140.47;5127300;27;20520;-74
2022/10/05 05:32:40;;;;;;;4.17;2.90;;;;;;;-143.84;63.31;45144.28;5129954;27;20431;-74
2022/10/05 05:35:28;;;;;;;3.03;2.50;;;;;;;-143.84;62.94;45127.13;5130126;27;21210;-74
2022/10/05 05:38:03;;;;;;;6.13;2.77;;;;;;;-143.84;62.57;45140.47;5130190;27;21180;-74
2022/10/05 05:40:35;;;;;;;5.53;3.20;;;;;;;-143.84;62.81;45113.81;5129783;27;20525;-74
2022/10/05 05:43:09;;;;;;;2.57;2.37;;;;;;;-143.84;62.01;45119.53;5129748;28;20448;-74
2022/10/05 05:45:42;;;;;;;4.77;2.90;;;;;;;-143.84;62.29;45148.09;5129886;28;20501;-74
2022/10/05 05:48:17;;;;;;;3.70;2.63;;;;;;;-143.84;62.83;45119.53;5129590;28;20485;-74
2022/10/05 05:50:57;;;;;;;3.03;2.53;;;;;;;-143.84;62.93;45155.69;5129602;28;20441;-73
2022/10/05 05:53:29;;;;;;;3.23;2.80;;;;;;;-143.84;63.47;45125.22;5129421;28;20495;-73
2022/10/05 05:56:05;;;;;;;4.30;3.00;;;;;;;-143.84;63.28;45130.94;5129929;28;20487;-73
2022/10/05 05:58:38;;;;;;;2.93;2.73;;;;;;;-143.84;63.81;45129.03;5129931;28;20501;-73
2022/10/05 06:01:13;;;;;;;4.23;2.67;;;;;;;-143.84;63.55;45130.94;5129333;28;20477;-73
2022/10/05 06:03:45;;;;;;;6.60;2.60;;;;;;;-143.84;63.79;45136.66;5129594;28;20431;-73
2022/10/05 06:06:17;;;;;;;3.53;2.90;;;;;;;-143.84;64.14;45125.22;5129519;28;20887;-73
2022/10/05 06:08:49;;;;;;;2.87;2.60;;;;;;;-143.84;63.98;45153.81;5129497;28;20525;-74
2022/10/05 06:11:22;;;;;;;9.90;3.00;;;;;;;-143.84;63.84;45140.47;5129574;28;20815;-74
2022/10/05 06:13:50;;;;;;;10.20;3.20;;;;;;;-143.84;64.28;45134.75;5129418;28;20440;-73
2022/10/05 06:16:23;;;;;;;7.93;3.00;;;;;;;-143.84;64.08;45132.84;5128888;28;20432;-73
2022/10/05 06:18:55;;;;;;;4.37;2.30;;;;;;;-143.84;63.94;45123.34;5129215;28;20448;-73
2022/10/05 06:21:30;;;;;;;3.03;2.70;;;;;;;-143.84;64.33;45130.94;5128984;28;21029;-73
2022/10/05 06:24:03;;;;;;;4.23;2.83;;;;;;;-143.84;64.68;45127.13;5129017;28;20487;-73
2022/10/05 06:26:55;;;;;;;3.70;2.63;;;;;;;-143.84;64.03;45148.09;5129211;28;20444;-74
2022/10/05 06:29:26;;;;;;;3.10;2.80;;;;;;;-143.84;64.20;45121.44;5128546;28;21029;-74
2022/10/05 06:32:05;;;;;;;2.80;2.60;;;;;;;-143.84;64.28;45121.44;5128756;28;20490;-74
2022/10/05 06:34:54;;;;;;;4.33;3.07;;;;;;;-143.84;64.49;45110.00;5129107;28;20460;-74
2022/10/05 06:37:35;;;;;;;3.10;2.80;;;;;;;-143.84;64.64;45129.03;5129114;28;20836;-74
2022/10/05 06:40:27;;;;;;;3.17;2.90;;;;;;;-143.84;64.71;45146.19;5129520;28;20479;-74
2022/10/05 06:43:10;;;;;;;7.07;2.80;;;;;;;-143.84;64.68;45142.38;5129197;28;21132;-74
2022/10/05 06:45:52;;;;;;;3.70;3.40;;;;;;;-143.84;64.48;45115.72;5129176;28;20442;-74
2022/10/05 06:48:32;;;;;;;3.00;2.37;;;;;;;-143.84;64.28;45161.41;5130585;27;20508;-73
2022/10/05 06:51:08;;;;;;;3.40;3.10;;;;;;;-143.84;64.50;45132.84;5133112;27;20531;-73
2022/10/05 06:53:45;;;;;;;3.00;2.80;;;;;;;-143.84;63.91;45153.81;5132901;27;20466;-73
2022/10/05 06:56:20;;;;;;;3.70;3.37;;;;;;;-143.84;64.01;45121.44;5132868;27;20929;-73
2022/10/05 06:58:54;;;;;;;3.30;3.00;;;;;;;-143.84;62.91;45127.13;5132652;27;20942;-73
2022/10/05 07:01:34;;;;;;;4.90;2.87;;;;;;;-143.84;62.10;45090.97;5132650;27;20563;-73
2022/10/05 07:04:18;;;;;;;9.30;4.97;;;;;;;-143.84;62.53;45104.28;5132865;27;21177;-73
2022/10/05 07:06:51;;;;;;;5.23;3.20;;;;;;;-143.84;61.61;45117.63;5132412;27;20477;-73
2022/10/05 07:09:31;;;;;;;11.93;5.40;;;;;;;-143.84;60.14;45121.44;5132624;27;20429;-73
2022/10/05 07:12:13;;;;;;;8.17;4.83;;;;;;;-143.84;59.34;45129.03;5132767;27;20467;-73
2022/10/05 07:14:59;;;;;;;5.03;3.53;;;;;;;-143.84;59.33;45108.09;5132183;27;20449;-73
2022/10/05 07:17:37;;;;;;;8.00;3.53;;;;;;;-143.84;59.96;45117.63;5132458;27;20469;-73
2022/10/05 07:20:15;;;;;;;14.47;5.37;;;;;;;-143.84;55.11;45106.19;5132346;27;20491;-73
2022/10/05 07:22:56;;;;;;;14.50;5.17;;;;;;;-143.84;53.52;45106.19;5132434;27;20521;-73
2022/10/05 07:25:28;;;;;;;9.93;4.43;;;;;;;-143.84;51.59;45100.47;5132032;27;20431;-73
2022/10/05 07:28:04;;;;;;;5.63;4.30;;;;;;;-143.84;52.10;45106.19;5131930;27;20445;-73
2022/10/05 07:30:41;;;;;;;3.73;3.23;;;;;;;-143.84;49.61;45102.38;5131709;27;20441;-73
2022/10/05 07:33:14;;;;;;;3.87;2.60;;;;;;;-143.84;47.25;45068.13;5131689;27;20441;-73
2022/10/05 07:38:41;;;;;;;3.80;3.40;;;;;;;-143.84;47.90;45073.81;5132229;27;20584;-74
2022/10/05 07:41:14;;;;;;;11.10;3.20;;;;;;;-143.84;45.93;45092.88;5132228;27;20523;-74
2022/10/05 07:43:47;;;;;;;4.70;2.00;;;;;;;-143.84;43.60;45090.97;5131745;27;20487;-74
2022/10/05 07:46:24;;;;;;;3.57;1.77;;;;;;;-143.84;43.40;45049.06;5132044;27;20951;-74
2022/10/05 07:49:02;;;;;;;1.77;1.67;;;;;;;-143.84;42.57;45077.63;5131732;27;20441;-74
2022/10/05 07:51:35;;;;;;;3.90;1.87;;;;;;;-143.84;41.41;45070.00;5131839;27;20454;-74
2022/10/05 07:54:16;;;;;;;4.53;2.30;;;;;;;-143.84;40.74;45062.41;5131864;27;21146;-74
2022/10/05 07:56:45;;;;;;;12.20;2.17;;;;;;;-143.84;39.69;45031.94;5131570;27;20813;-74
2022/10/05 07:59:20;;;;;;;6.57;1.73;;;;;;;-143.84;39.25;45075.72;5131138;27;20442;-74
2022/10/05 08:01:55;;;;;;;2.80;1.83;;;;;;;-143.84;38.53;45062.41;5131634;27;20473;-74
2022/10/05 08:04:28;;;;;;;1.90;1.73;;;;;;;-143.84;39.15;45035.75;5131813;27;20430;-74
2022/10/05 08:06:58;;;;;;;3.20;1.73;;;;;;;-143.84;39.06;45047.16;5131216;27;20478;-74
2022/10/05 08:09:39;;;;;;;7.87;2.40;;;;;;;-143.84;37.58;45024.31;5131350;27;20439;-74
2022/10/05 08:12:29;;;;;;;10.03;2.30;;;;;;;-143.84;37.90;45030.03;5131302;27;20849;-74
2022/10/05 08:14:58;;;;;;;2.17;1.97;;;;;;;-143.84;37.31;45024.31;5131262;27;20943;-74
2022/10/05 08:17:44;;;;;;;4.60;1.90;;;;;;;-143.84;37.79;45043.34;5133268;27;20506;-78
2022/10/05 08:20:29;;;;;;;5.83;2.43;;;;;;;-143.84;37.16;45026.22;5132592;27;20494;-78
2022/10/05 08:23:02;;;;;;;2.00;1.80;;;;;;;-143.84;36.67;45041.44;5132745;27;20503;-78
2022/10/05 08:25:40;;;;;;;2.33;1.87;;;;;;;-143.84;36.25;45007.19;5132476;27;20488;-78
2022/10/05 08:28:14;;;;;;;2.50;1.80;;;;;;;-143.84;35.72;44997.66;5132953;27;20429;-78
2022/10/05 08:30:56;;;;;;;1.50;1.40;;;;;;;-143.84;36.64;45014.78;5136229;27;20935;-78
2022/10/05 08:33:27;;;;;;;3.53;2.27;;;;;;;-143.84;35.46;45014.78;5135367;27;20474;-78
2022/10/05 08:36:06;;;;;;;1.97;1.77;;;;;;;-143.84;35.38;45035.75;5134947;27;20871;-78
2022/10/05 08:38:34;;;;;;;3.10;1.90;;;;;;;-143.84;35.39;45020.50;5135405;27;20438;-79
2022/10/05 08:41:24;;;;;;;1.70;1.53;;;;;;;-143.84;35.46;45037.66;5135473;27;20470;-79
2022/10/05 08:44:27;;;;;;;2.20;1.60;;;;;;;-143.84;34.26;44993.84;5135104;27;20438;-78
2022/10/05 08:47:16;;;;;;;2.87;1.90;;;;;;;-143.84;34.08;45026.22;5132320;27;20457;-79
2022/10/05 08:50:18;;;;;;;3.10;1.43;;;;;;;-143.84;34.69;45012.88;5135306;27;20430;-79
2022/10/05 08:53:19;;;;;;;6.50;1.30;;;;;;;-143.84;31.96;44999.56;5114886;27;20460;-79
2022/10/05 08:56:10;;;;;;;4.13;1.63;;;;;;;-143.84;31.95;45010.97;5131003;27;20445;-79
2022/10/05 08:58:53;;;;;;;3.20;1.40;;;;;;;-143.84;33.31;45012.88;5132629;27;20438;-79
2022/10/05 09:01:27;;;;;;;2.87;1.53;;;;;;;-143.84;32.91;45007.19;5131916;27;20481;-78
2022/10/05 09:04:21;;;;;;;2.90;1.47;;;;;;;-143.84;32.30;45018.59;5132946;27;20757;-79
2022/10/05 09:07:21;;;;;;;2.63;1.60;;;;;;;-143.84;32.58;44993.84;5132368;27;20497;-79
2022/10/05 09:10:37;;;;;;;3.77;1.57;;;;;;;-143.84;31.99;44991.94;5112218;27;20807;-79
2022/10/05 09:13:39;;;;;;;2.30;1.50;;;;;;;-143.84;32.28;44999.56;5132161;27;20441;-79
2022/10/05 09:16:42;;;;;;;3.57;1.53;;;;;;;-143.84;31.81;44990.03;5097298;27;20978;-79
2022/10/05 09:19:45;;;;;;;2.47;1.47;;;;;;;-143.84;32.11;45009.09;5083073;27;20446;-79
2022/10/05 09:22:23;;;;;;;1.90;1.50;;;;;;;-143.84;31.92;44988.13;5131945;27;20476;-79
2022/10/05 09:25:08;;;;;;;1.93;1.83;;;;;;;-143.84;30.43;44982.41;5131940;27;20446;-79
2022/10/05 09:27:37;;;;;;;1.70;1.60;;;;;;;-143.84;30.20;45005.28;5132055;27;20479;-79
2022/10/05 09:30:43;;;;;;;1.33;1.23;;;;;;;-143.84;30.51;45001.47;5132011;27;20430;-78
2022/10/05 09:33:52;;;;;;;3.73;1.63;;;;;;;-143.84;30.75;45001.47;5131803;27;20437;-79
2022/10/05 09:36:56;;;;;;;2.03;1.23;;;;;;;-143.84;30.73;45007.19;5131488;27;20449;-79
2022/10/05 09:39:50;;;;;;;3.57;2.47;;;;;;;-143.84;31.69;44999.56;5131822;27;20434;-78
2022/10/05 09:42:45;;;;;;;7.17;2.57;;;;;;;-143.84;33.96;44976.72;5090094;27;20995;-78
2022/10/05 09:45:48;;;;;;;12.67;2.87;;;;;;;-143.84;32.83;45010.97;5134762;28;21022;-79
2022/10/05 09:48:52;;;;;;;5.83;2.40;;;;;;;-143.84;33.13;44995.75;5081299;28;20484;-79
2022/10/05 09:52:04;;;;;;;8.27;2.33;;;;;;;-143.84;33.28;45020.50;5134668;28;20434;-79
2022/10/05 09:55:20;;;;;;;3.30;2.43;;;;;;;-143.84;33.34;45014.78;5133598;28;20576;-78
2022/10/05 09:58:27;;;;;;;3.13;2.27;;;;;;;-143.84;33.59;45009.09;5134738;28;20775;-79
2022/10/05 10:01:10;;;;;;;2.40;2.20;;;;;;;-143.84;33.32;45014.78;5117233;28;20678;-74
2022/10/05 10:04:11;;;;;;;2.43;1.83;;;;;;;-143.84;33.35;45007.19;5129638;28;20805;-73
2022/10/05 10:06:58;;;;;;;4.17;2.10;;;;;;;-143.84;33.37;45018.59;5129138;28;20484;-74
2022/10/05 10:09:35;;;;;;;5.43;2.70;;;;;;;-143.84;33.95;45007.19;5129297;28;20448;-74
2022/10/05 10:12:23;;;;;;;2.27;2.17;;;;;;;-143.84;33.85;45003.38;5129567;28;20438;-74
2022/10/05 10:18:06;;;;;;;2.77;2.40;;;;;;;-143.84;34.39;45003.38;5106910;27;20541;-74
2022/10/05 10:20:50;;;;;;;3.93;2.27;;;;;;;-143.84;33.91;45014.78;5106678;28;20463;-74
2022/10/05 10:23:34;;;;;;;3.07;2.37;;;;;;;-143.84;33.83;45014.78;5106667;28;20844;-74
2022/10/05 10:26:36;;;;;;;2.17;1.97;;;;;;;-143.84;33.29;45001.47;5106499;28;20542;-74
2022/10/05 10:29:38;;;;;;;8.83;2.60;;;;;;;-143.84;33.19;45012.88;5106391;28;20474;-74
2022/10/05 10:32:36;;;;;;;2.17;1.53;;;;;;;-143.84;33.43;45003.38;5106450;28;20791;-74
2022/10/05 10:35:30;;;;;;;1.87;1.77;;;;;;;-143.84;33.46;44991.94;5102472;28;20520;-74
2022/10/05 10:38:27;;;;;;;1.97;1.87;;;;;;;-143.84;33.67;45028.13;5105597;28;20508;-73
2022/10/05 10:41:35;;;;;;;4.90;2.17;;;;;;;-143.84;34.30;45028.13;5105385;28;20439;-73
2022/10/05 10:44:33;;;;;;;2.50;2.30;;;;;;;-143.84;34.26;45024.31;5071706;28;20443;-73
2022/10/05 10:47:30;;;;;;;2.17;1.60;;;;;;;-143.84;33.81;45009.09;5106005;28;20451;-73
2022/10/05 10:50:33;;;;;;;2.07;1.87;;;;;;;-143.84;33.55;45031.94;5106154;28;20451;-73
2022/10/05 10:53:18;;;;;;;4.60;2.03;;;;;;;-143.84;34.31;45012.88;5105695;28;20427;-73
2022/10/05 10:55:52;;;;;;;1.90;1.80;;;;;;;-143.84;34.07;45031.94;5105218;28;20991;-73
2022/10/05 10:58:55;;;;;;;4.30;1.70;;;;;;;-143.84;34.57;45009.09;5105476;28;20465;-73
2022/10/05 11:01:32;;;;;;;2.20;1.67;;;;;;;-143.84;32.62;45037.66;5105457;28;20492;-73
2022/10/05 11:04:32;;;;;;;1.50;1.40;;;;;;;-143.84;33.72;45018.59;5104935;28;20504;-73
2022/10/05 11:07:35;;;;;;;3.50;1.73;;;;;;;-143.84;34.04;45024.31;5105771;28;20941;-73
2022/10/05 11:10:28;;;;;;;2.93;1.93;;;;;;;-143.84;34.96;45033.84;5105704;28;20434;-73
2022/10/05 11:13:23;;;;;;;1.90;1.80;;;;;;;-143.84;33.78;45030.03;5105656;28;20487;-73
2022/10/05 11:16:11;;;;;;;2.27;1.20;;;;;;;-143.84;33.63;45026.22;5105181;28;20502;-73
2022/10/05 11:18:52;;;;;;;1.50;1.40;;;;;;;-143.84;33.44;45018.59;5105421;28;20439;-73
2022/10/05 11:21:30;;;;;;;2.60;1.20;;;;;;;-143.84;32.70;45007.19;5105291;28;20563;-73
2022/10/05 11:24:42;;;;;;;4.07;1.77;;;;;;;-143.84;33.06;45024.31;5105510;28;20439;-73
2022/10/05 11:27:48;;;;;;;6.07;1.20;;;;;;;-143.84;32.83;45035.75;5102752;28;20440;-73
2022/10/05 11:30:53;;;;;;;4.33;2.90;;;;;;;-143.84;32.93;45026.22;5091822;28;20925;-73
2022/10/05 11:33:58;;;;;;;3.40;1.53;;;;;;;-143.84;33.72;45041.44;5091609;28;20447;-73
2022/10/05 11:36:52;;;;;;;2.13;1.57;;;;;;;-143.84;32.77;45028.13;5073634;28;20521;-73
2022/10/05 11:39:44;;;;;;;4.20;1.40;;;;;;;-143.84;32.38;45014.78;5091544;28;20521;-73
2022/10/05 11:42:55;;;;;;;2.13;1.60;;;;;;;-143.84;32.12;45030.03;5091471;28;20531;-73
2022/10/05 11:45:35;;;;;;;2.53;1.57;;;;;;;-143.84;32.01;44990.03;5008793;28;20439;-73
2022/10/05 11:48:31;;;;;;;2.37;1.13;;;;;;;-143.84;32.07;45041.44;5008832;28;20538;-73
2022/10/05 11:51:24;;;;;;;1.40;0.90;;;;;;;-143.84;31.89;45014.78;5069146;28;20444;-72
2022/10/05 11:54:01;;;;;;;3.00;1.50;;;;;;;-143.84;32.09;44995.75;5088210;28;20451;-73
2022/10/05 11:56:36;;;;;;;6.90;1.70;;;;;;;-143.84;32.83;45028.13;5091537;28;20903;-73
2022/10/05 11:59:13;;;;;;;1.20;1.10;;;;;;;-143.84;32.54;45012.88;5091402;28;20448;-73
2022/10/05 12:01:50;;;;;;;3.57;1.40;;;;;;;-143.84;32.71;45031.94;5090868;28;20435;-73
2022/10/05 12:04:24;;;;;;;1.30;1.20;;;;;;;-143.84;32.76;45030.03;5090931;28;20439;-73
2022/10/05 12:07:02;;;;;;;1.87;1.20;;;;;;;-143.84;32.09;45007.19;5090975;28;21015;-73
2022/10/05 12:12:35;;;;;;;2.33;1.30;;;;;;;-143.84;32.71;45026.22;5090704;28;20447;-73
2022/10/05 12:15:12;;;;;;;1.60;1.33;;;;;;;-143.84;31.91;45026.22;5090966;28;21089;-73
2022/10/05 12:17:51;;;;;;;1.57;1.10;;;;;;;-143.84;31.63;45007.19;5090512;28;20545;-73
2022/10/05 12:20:26;;;;;;;2.90;1.00;;;;;;;-143.84;32.05;45031.94;5090734;28;20501;-72
2022/10/05 12:22:58;;;;;;;3.00;1.40;;;;;;;-143.84;30.95;45012.88;5090623;28;20436;-73
2022/10/05 12:25:31;;;;;;;1.23;1.00;;;;;;;-143.84;31.73;45020.50;5090604;28;20446;-73
2022/10/05 12:28:05;;;;;;;1.30;1.17;;;;;;;-143.84;31.26;45016.69;5090698;28;20531;-73